Time;durP1;ratioP1;P1;durP2;ratioP2;P2;SDS_P1;SDS_P2;PMS_P1;PMS_P2;Temp;Humidity;BMP_temperature;BMP_pressure;BME280_temperature;BME280_humidity;BME280_pressure;Samples;Min_cycle;Max_cycle;Signal;HPM_P1;HPM_P2
2023/01/05 00:01:13;;;;;;;;;0.00;0.00;;;;;13.85;84.36;102069.94;4975602;28;45213;-47
2023/01/05 00:03:39;;;;;;;;;0.00;0.00;;;;;13.89;84.46;102076.72;4975498;28;45298;-46
2023/01/05 00:06:08;;;;;;;;;0.00;0.00;;;;;13.91;84.07;102072.09;4975707;28;45431;-46
2023/01/05 00:08:33;;;;;;;;;0.00;0.00;;;;;13.89;83.97;102074.88;4975223;28;46484;-46
2023/01/05 00:22:29;;;;;;;;;0.00;0.00;;;;;13.86;83.62;102079.66;4975171;28;45264;-45
2023/01/05 00:24:55;;;;;;;;;0.00;0.00;;;;;13.87;83.49;102073.34;4975195;28;45512;-47
2023/01/05 00:27:20;;;;;;;;;1.00;0.00;;;;;13.86;83.57;102071.63;4975419;28;45369;-47
2023/01/05 00:29:45;;;;;;;;;0.67;0.67;;;;;13.86;83.24;102076.97;4974972;28;46988;-47
2023/01/05 00:32:10;;;;;;;;;0.00;0.00;;;;;13.86;83.33;102082.34;4973278;28;52821;-46
2023/01/05 00:34:36;;;;;;;;;0.00;0.00;;;;;13.87;83.21;102081.38;4975223;28;45241;-46
2023/01/05 00:37:01;;;;;;;;;2.00;0.00;;;;;13.86;83.37;102080.53;4976713;28;45293;-42
2023/01/05 00:39:26;;;;;;;;;0.00;0.00;;;;;13.85;83.26;102080.66;4974906;28;46657;-46
2023/01/05 00:41:52;;;;;;;;;0.00;0.00;;;;;13.83;83.43;102072.78;4974183;28;45373;-45
2023/01/05 00:44:17;;;;;;;;;0.00;0.00;;;;;13.82;83.91;102063.06;4974216;28;45374;-43
2023/01/05 00:46:42;;;;;;;;;0.67;0.00;;;;;13.84;83.83;102068.25;4975132;28;45779;-44
2023/01/05 00:49:08;;;;;;;;;0.00;0.00;;;;;13.85;83.62;102073.47;4974387;28;47637;-47
2023/01/05 00:51:33;;;;;;;;;0.00;0.00;;;;;13.85;83.83;102070.78;4974828;28;45424;-45
2023/01/05 00:53:58;;;;;;;;;0.00;0.00;;;;;13.85;83.70;102080.66;4974511;28;45400;-47
2023/01/05 00:56:24;;;;;;;;;0.00;0.00;;;;;13.84;83.47;102079.81;4974835;28;45388;-48
2023/01/05 00:58:52;;;;;;;;;0.00;0.00;;;;;13.84;83.62;102084.31;4974436;28;45799;-47
2023/01/05 01:01:18;;;;;;;;;0.00;0.00;;;;;13.83;83.32;102086.16;4974612;28;45401;-47
2023/01/05 01:03:43;;;;;;;;;0.00;0.00;;;;;13.82;83.20;102086.25;4974733;28;45338;-47
2023/01/05 01:06:08;;;;;;;;;1.00;0.00;;;;;13.80;82.87;102091.75;4974606;28;45295;-49
2023/01/05 01:08:34;;;;;;;;;0.00;0.00;;;;;13.80;83.60;102083.72;4974660;28;46114;-45
2023/01/05 01:11:05;;;;;;;;;0.33;0.33;;;;;13.79;83.37;102079.38;4974336;28;45391;-46
2023/01/05 01:13:30;;;;;;;;;0.00;0.00;;;;;13.78;82.68;102082.16;4974409;28;45254;-45
2023/01/05 01:15:56;;;;;;;;;0.00;0.00;;;;;13.77;82.91;102077.81;4974643;28;45374;-46
2023/01/05 01:18:22;;;;;;;;;0.00;0.00;;;;;13.74;82.97;102068.25;4974077;28;45442;-44
2023/01/05 01:20:47;;;;;;;;;0.00;0.00;;;;;13.76;82.82;102068.09;4974339;28;45418;-47
2023/01/05 01:23:13;;;;;;;;;0.00;0.00;;;;;13.79;82.86;102076.69;4974599;28;45358;-47
2023/01/05 01:25:38;;;;;;;;;1.00;0.00;;;;;13.81;82.56;102071.19;4974512;28;45445;-48
2023/01/05 01:28:04;;;;;;;;;0.00;0.00;;;;;13.79;82.74;102067.84;4974219;28;46230;-46
2023/01/05 01:30:29;;;;;;;;;0.00;0.00;;;;;13.78;82.86;102076.81;4973979;28;45564;-47
2023/01/05 01:32:55;;;;;;;;;3.33;0.00;;;;;13.76;82.76;102073.44;4974249;28;45506;-48
2023/01/05 01:35:20;;;;;;;;;0.00;0.00;;;;;13.76;83.17;102062.75;4974517;28;45366;-45
2023/01/05 01:37:45;;;;;;;;;0.00;0.00;;;;;13.74;83.01;102073.59;4973943;28;46672;-47
2023/01/05 01:40:12;;;;;;;;;0.00;0.00;;;;;13.74;82.50;102076.25;4974166;28;45256;-45
2023/01/05 01:42:38;;;;;;;;;0.00;0.00;;;;;13.75;82.54;102077.09;4974028;28;45232;-47
2023/01/05 01:45:22;;;;;;;;;0.67;0.00;;;;;13.73;82.26;102083.41;4974134;28;45323;-46
2023/01/05 01:47:54;;;;;;;;;0.00;0.00;;;;;13.72;82.25;102075.53;4973831;28;46240;-49
2023/01/05 01:50:30;;;;;;;;;0.00;0.00;;;;;13.72;82.01;102086.22;4973280;28;45467;-45
2023/01/05 01:53:06;;;;;;;;;0.00;0.00;;;;;13.71;81.71;102079.19;4973908;28;45330;-47
2023/01/05 01:55:34;;;;;;;;;0.00;0.00;;;;;13.69;81.75;102079.34;4976827;28;45419;-46
2023/01/05 01:58:01;;;;;;;;;0.00;0.00;;;;;13.71;81.20;102087.22;4976691;28;46261;-45
2023/01/05 02:00:27;;;;;;;;;1.67;0.00;;;;;13.70;80.85;102089.06;4976707;28;45441;-48
2023/01/05 02:02:54;;;;;;;;;0.67;0.67;;;;;13.67;80.25;102088.47;4976888;28;45342;-46
2023/01/05 02:05:24;;;;;;;;;0.00;0.00;;;;;13.66;80.18;102082.28;4977115;28;45394;-48
2023/01/05 02:07:50;;;;;;;;;0.00;0.00;;;;;13.68;80.23;102087.47;4976698;28;46293;-47
2023/01/05 02:10:20;;;;;;;;;0.33;0.00;;;;;13.59;80.48;102074.91;4976710;28;45294;-47
2023/01/05 02:12:52;;;;;;;;;2.00;0.00;;;;;13.66;80.27;102081.44;4976877;28;45301;-47
2023/01/05 02:15:17;;;;;;;;;1.00;0.00;;;;;13.66;80.59;102086.78;4976657;28;45440;-48
2023/01/05 02:18:08;;;;;;;;;0.00;0.00;;;;;13.65;80.90;102090.41;4976469;28;45571;-44
2023/01/05 02:20:49;;;;;;;;;0.00;0.00;;;;;13.66;80.44;102087.63;4975198;28;45413;-46
2023/01/05 02:23:39;;;;;;;;;0.00;0.00;;;;;13.66;80.68;102098.31;4976676;28;45268;-46
2023/01/05 02:26:24;;;;;;;;;2.00;0.00;;;;;13.68;81.16;102100.84;4976812;28;45337;-45
2023/01/05 02:29:14;;;;;;;;;2.00;0.00;;;;;13.68;81.32;102100.84;4976176;28;45306;-44
2023/01/05 02:31:54;;;;;;;;;0.00;0.00;;;;;13.71;81.59;102101.44;4976427;28;45359;-44
2023/01/05 02:34:35;;;;;;;;;0.00;0.00;;;;;13.75;81.56;102101.19;4976589;28;45341;-47
2023/01/05 02:37:14;;;;;;;;;0.00;0.00;;;;;13.76;81.50;102108.22;4976709;28;45391;-46
2023/01/05 02:39:58;;;;;;;;;0.00;0.00;;;;;13.78;81.82;102099.09;4977533;28;46578;-48
2023/01/05 02:42:27;;;;;;;;;0.00;0.00;;;;;13.79;81.78;102100.78;4976290;28;45271;-47
2023/01/05 02:44:53;;;;;;;;;0.00;0.00;;;;;13.79;81.83;102103.44;4976148;28;45398;-47
2023/01/05 02:47:26;;;;;;;;;1.00;0.00;;;;;13.80;81.41;102105.13;4976665;28;45477;-47
2023/01/05 02:50:00;;;;;;;;;0.00;0.00;;;;;13.80;81.46;102104.28;4975997;28;45516;-48
2023/01/05 02:52:26;;;;;;;;;0.67;0.00;;;;;13.81;81.40;102100.63;4976319;28;45315;-47
2023/01/05 02:55:07;;;;;;;;;0.67;0.67;;;;;13.77;80.94;102097.38;4976335;28;45405;-48
2023/01/05 02:57:49;;;;;;;;;0.00;0.00;;;;;13.75;79.93;102085.13;4976379;28;45428;-45
2023/01/05 03:00:59;;;;;;;;;1.00;0.00;;;;;13.70;80.13;102086.38;4976184;28;46385;-46
2023/01/05 03:03:40;;;;;;;;;2.00;0.00;;;;;13.65;79.77;102093.09;5016463;28;45328;-46
2023/01/05 03:06:17;;;;;;;;;1.00;0.00;;;;;13.63;79.38;102093.22;5015420;28;45366;-44
2023/01/05 03:08:56;;;;;;;;;0.00;0.00;;;;;13.61;79.20;102089.88;5015622;28;45535;-45
2023/01/05 03:14:45;;;;;;;;;1.33;0.67;;;;;13.62;78.97;102102.25;5015976;28;45679;-45
2023/01/05 03:17:14;;;;;;;;;0.00;0.00;;;;;13.63;77.92;102100.41;4918696;28;45343;-46
2023/01/05 03:19:43;;;;;;;;;1.00;0.00;;;;;13.63;77.73;102100.41;4918986;28;45539;-45
2023/01/05 03:37:12;;;;;;;;;2.00;0.00;;;;;13.65;76.58;102107.34;4896536;29;45439;-48
2023/01/05 03:39:41;;;;;;;;;2.00;0.00;;;;;13.64;76.69;102092.25;4896854;29;45306;-48
2023/01/05 03:42:09;;;;;;;;;0.00;0.00;;;;;13.67;76.34;102104.50;4896830;29;45567;-45
2023/01/05 03:44:37;;;;;;;;;0.00;0.00;;;;;13.67;76.54;102105.34;4896071;29;46125;-46
2023/01/05 03:47:03;;;;;;;;;5.00;0.00;;;;;13.69;76.35;102110.56;4896523;29;45359;-44
2023/01/05 03:49:28;;;;;;;;;0.00;0.00;;;;;13.69;76.37;102119.47;4896526;29;45316;-47
2023/01/05 03:51:54;;;;;;;;;3.00;0.67;;;;;13.70;76.11;102115.78;4896845;29;45570;-44
2023/01/05 03:54:19;;;;;;;;;2.00;0.00;;;;;13.69;76.35;102116.78;4942509;28;56475;-45
2023/01/05 03:56:44;;;;;;;;;2.00;2.00;;;;;13.71;76.57;102120.16;4975324;28;45370;-45
2023/01/05 03:59:10;;;;;;;;;2.00;0.00;;;;;13.72;76.04;102115.66;4975527;28;45146;-47
2023/01/05 04:01:35;;;;;;;;;0.00;0.00;;;;;13.65;76.47;102098.44;4975636;28;45300;-45
2023/01/05 04:04:00;;;;;;;;;0.00;0.00;;;;;13.68;76.47;102108.88;4975291;28;45997;-46
2023/01/05 04:06:26;;;;;;;;;0.00;0.00;;;;;13.67;76.61;102113.38;4975230;28;45385;-47
2023/01/05 04:08:51;;;;;;;;;2.67;0.00;;;;;13.69;77.02;102110.56;4975453;28;45402;-45
2023/01/05 04:11:20;;;;;;;;;0.33;0.33;;;;;13.66;77.14;102111.69;4975644;28;45499;-45
2023/01/05 04:13:46;;;;;;;;;0.00;0.00;;;;;13.66;77.24;102117.03;4975263;28;45496;-45
2023/01/05 04:16:11;;;;;;;;;1.00;0.00;;;;;13.66;77.18;102111.69;4974992;28;45550;-46
2023/01/05 04:18:37;;;;;;;;;1.00;1.00;;;;;13.66;77.10;102108.19;4975311;28;45292;-46
2023/01/05 04:21:03;;;;;;;;;0.00;0.00;;;;;13.65;77.36;102110.00;4975456;28;45333;-49
2023/01/05 04:23:29;;;;;;;;;1.00;1.00;;;;;13.62;77.45;102109.41;4975125;28;47229;-46
2023/01/05 04:25:54;;;;;;;;;1.00;1.00;;;;;13.64;77.76;102110.97;4974825;28;45165;-46
2023/01/05 04:28:19;;;;;;;;;0.33;0.00;;;;;13.65;77.33;102109.13;4975136;28;45293;-46
2023/01/05 04:30:48;;;;;;;;;0.00;0.00;;;;;13.67;77.57;102112.53;4973735;28;45235;-48
2023/01/05 04:33:14;;;;;;;;;0.00;0.00;;;;;13.60;77.53;102101.50;4974976;28;45461;-46
2023/01/05 04:35:39;;;;;;;;;0.67;0.67;;;;;13.65;77.45;102106.47;4974898;28;45355;-47
2023/01/05 04:38:04;;;;;;;;;1.67;0.00;;;;;13.67;77.28;102113.38;4974909;28;45347;-44
2023/01/05 04:40:30;;;;;;;;;0.33;0.00;;;;;13.67;77.46;102115.22;4975303;28;45366;-47
2023/01/05 04:42:55;;;;;;;;;3.67;0.67;;;;;13.66;77.38;102106.34;4974769;28;47713;-44
2023/01/05 04:45:20;;;;;;;;;0.00;0.00;;;;;13.68;77.53;102114.22;4974684;28;45398;-54
2023/01/05 04:47:46;;;;;;;;;2.00;1.00;;;;;13.66;77.55;102109.03;4974983;28;45334;-49
2023/01/05 04:50:11;;;;;;;;;1.00;0.00;;;;;13.67;77.61;102113.38;4976388;28;45541;-49
2023/01/05 04:52:37;;;;;;;;;0.00;0.00;;;;;13.66;77.28;102118.88;4974570;28;46041;-48
2023/01/05 04:55:03;;;;;;;;;0.00;0.00;;;;;13.62;77.70;102104.06;4974735;28;45288;-47
2023/01/05 04:57:28;;;;;;;;;0.00;0.00;;;;;13.61;77.68;102113.94;4974739;28;45335;-44
2023/01/05 04:59:53;;;;;;;;;1.00;0.00;;;;;13.54;78.06;102104.72;4975042;28;45266;-44
2023/01/05 05:02:18;;;;;;;;;0.00;0.00;;;;;13.57;78.04;102109.81;4974341;28;46339;-46
2023/01/05 05:04:44;;;;;;;;;0.00;0.00;;;;;13.48;78.00;102100.78;4974708;28;45398;-46
2023/01/05 05:07:09;;;;;;;;;0.00;0.00;;;;;13.55;78.03;102103.75;4974796;28;45219;-48
2023/01/05 05:09:34;;;;;;;;;2.00;0.33;;;;;13.54;78.19;102110.09;4974956;28;45339;-45
2023/01/05 05:12:00;;;;;;;;;0.67;0.00;;;;;13.52;78.27;102114.69;4974524;28;46842;-48
2023/01/05 05:14:25;;;;;;;;;0.33;0.00;;;;;13.53;78.37;102107.56;4974355;28;45299;-47
2023/01/05 05:16:50;;;;;;;;;3.00;0.00;;;;;13.52;78.48;102104.00;4974631;28;45388;-45
2023/01/05 05:19:16;;;;;;;;;1.33;0.00;;;;;13.54;78.50;102103.88;4974624;28;45146;-44
2023/01/05 05:21:41;;;;;;;;;1.33;0.67;;;;;13.53;78.70;102105.72;4974413;28;45496;-47
2023/01/05 05:24:07;;;;;;;;;2.00;0.00;;;;;13.52;78.54;102101.31;4974369;28;45396;-48
2023/01/05 05:26:32;;;;;;;;;0.00;0.00;;;;;13.51;78.75;102101.47;4974385;28;45458;-45
2023/01/05 05:28:58;;;;;;;;;2.00;0.67;;;;;13.51;79.01;102104.16;4975571;28;45279;-46
2023/01/05 05:31:23;;;;;;;;;1.00;0.00;;;;;13.48;78.80;102107.91;4976825;28;46766;-46
2023/01/05 05:33:49;;;;;;;;;2.00;0.00;;;;;13.47;78.87;102100.88;4975826;28;45478;-47
2023/01/05 05:36:14;;;;;;;;;2.00;0.00;;;;;13.48;79.29;102110.59;4977201;28;45322;-45
2023/01/05 05:38:40;;;;;;;;;0.00;0.00;;;;;13.46;78.82;102104.53;4977280;28;45420;-46
2023/01/05 05:41:05;;;;;;;;;0.00;0.00;;;;;13.46;79.13;102110.75;4977101;28;46023;-46
2023/01/05 05:43:30;;;;;;;;;1.00;0.33;;;;;13.47;79.20;102111.59;4976978;28;45425;-44
2023/01/05 05:45:56;;;;;;;;;0.00;0.00;;;;;13.44;79.33;102104.69;4977084;28;45293;-45
2023/01/05 05:48:21;;;;;;;;;0.00;0.00;;;;;13.43;79.69;102099.47;4976997;28;45524;-48
2023/01/05 05:50:46;;;;;;;;;1.00;0.00;;;;;13.45;79.50;102108.22;4976888;28;46275;-47
2023/01/05 05:53:12;;;;;;;;;0.00;0.00;;;;;13.48;79.23;102110.59;4977085;28;45235;-48
2023/01/05 05:55:37;;;;;;;;;1.33;0.00;;;;;13.46;79.40;102112.56;4977002;28;45368;-47
2023/01/05 05:58:03;;;;;;;;;2.00;1.00;;;;;13.50;79.42;102115.81;4976750;28;45280;-45
2023/01/05 06:00:28;;;;;;;;;0.00;0.00;;;;;13.49;79.20;102123.00;4976993;28;45263;-50
2023/01/05 06:02:53;;;;;;;;;0.33;0.33;;;;;13.52;79.45;102122.72;4976516;28;45179;-47
2023/01/05 06:05:19;;;;;;;;;1.00;0.00;;;;;13.53;79.23;102129.78;4978322;28;45244;-47
2023/01/05 06:07:44;;;;;;;;;2.00;0.00;;;;;13.54;79.08;102133.28;4977073;28;45223;-46
2023/01/05 06:10:09;;;;;;;;;0.00;0.00;;;;;13.52;79.02;102124.53;4976521;28;45969;-48
2023/01/05 06:12:35;;;;;;;;;1.67;0.00;;;;;13.53;79.33;102124.44;4976694;28;45291;-45
2023/01/05 06:15:00;;;;;;;;;0.00;0.00;;;;;13.48;79.07;102127.50;4976744;28;45312;-46
2023/01/05 06:17:25;;;;;;;;;2.00;0.00;;;;;13.56;79.18;102142.03;4976900;28;45365;-46
2023/01/05 06:19:51;;;;;;;;;0.00;0.00;;;;;13.56;79.05;102148.22;4976522;28;48007;-44
2023/01/05 06:22:16;;;;;;;;;2.00;0.00;;;;;13.55;79.29;102146.53;4976558;28;45292;-45
2023/01/05 06:24:42;;;;;;;;;0.00;0.00;;;;;13.56;79.35;102152.72;4976749;28;45224;-44
2023/01/05 06:27:07;;;;;;;;;0.00;0.00;;;;;13.54;79.52;102144.00;4976839;28;45305;-44
2023/01/05 06:29:32;;;;;;;;;2.00;0.00;;;;;13.55;79.23;102148.34;4976444;28;45321;-46
2023/01/05 06:31:58;;;;;;;;;1.67;0.33;;;;;13.55;79.30;102149.19;4976168;28;50090;-48
2023/01/05 06:34:23;;;;;;;;;0.00;0.00;;;;;13.56;79.59;102158.91;4976449;28;47577;-45
2023/01/05 06:36:48;;;;;;;;;1.33;0.00;;;;;13.56;79.33;102153.56;4976454;28;45282;-45
2023/01/05 06:39:14;;;;;;;;;2.67;0.33;;;;;13.56;79.59;102160.72;4976184;28;45966;-44
2023/01/05 06:41:39;;;;;;;;;1.00;0.00;;;;;13.56;79.65;102150.88;4975181;28;45219;-46
2023/01/05 06:44:05;;;;;;;;;1.33;0.33;;;;;13.55;79.60;102146.53;4975972;28;47618;-45
2023/01/05 06:46:31;;;;;;;;;0.00;0.00;;;;;13.55;79.70;102159.03;4976413;28;45307;-44
2023/01/05 06:48:56;;;;;;;;;2.00;0.00;;;;;13.56;79.98;102156.22;4975793;28;45442;-46
2023/01/05 06:51:21;;;;;;;;;1.67;0.00;;;;;13.57;79.54;102157.94;4976115;28;45434;-46
2023/01/05 06:53:47;;;;;;;;;0.00;0.00;;;;;13.59;79.94;102163.16;4976511;28;45283;-47
2023/01/05 06:56:12;;;;;;;;;0.00;0.00;;;;;13.57;79.82;102157.94;4976216;28;45178;-45
2023/01/05 06:58:37;;;;;;;;;3.00;0.00;;;;;13.57;79.93;102157.94;4975819;28;51797;-45
2023/01/05 07:01:03;;;;;;;;;0.00;0.00;;;;;13.59;80.19;102155.97;4976032;28;45236;-44
2023/01/05 07:03:28;;;;;;;;;0.67;0.00;;;;;13.58;80.11;102162.31;4976082;28;45372;-47
2023/01/05 07:05:53;;;;;;;;;1.00;1.00;;;;;13.59;80.15;102164.00;4975178;28;45465;-46
2023/01/05 07:08:19;;;;;;;;;2.00;0.00;;;;;13.61;80.07;102166.53;4976138;28;46105;-48
2023/01/05 07:10:44;;;;;;;;;0.33;0.33;;;;;13.64;80.24;102169.78;4976329;28;45290;-46
2023/01/05 07:13:09;;;;;;;;;0.00;0.00;;;;;13.65;80.42;102166.16;4976157;28;45284;-46
2023/01/05 07:15:35;;;;;;;;;0.00;0.00;;;;;13.66;79.96;102167.84;4976680;28;45502;-45
2023/01/05 07:18:00;;;;;;;;;0.00;0.00;;;;;13.67;80.08;102174.88;4975786;28;46973;-48
2023/01/05 07:20:26;;;;;;;;;0.00;0.00;;;;;13.67;80.25;102172.22;4976082;28;45372;-44
2023/01/05 07:22:51;;;;;;;;;0.00;0.00;;;;;13.72;80.01;102177.16;4976219;28;45564;-46
2023/01/05 07:25:17;;;;;;;;;0.00;0.00;;;;;13.72;80.27;102174.47;4976342;28;45342;-45
2023/01/05 07:27:42;;;;;;;;;1.00;1.00;;;;;13.76;80.19;102172.41;4975899;28;46014;-47
2023/01/05 07:30:08;;;;;;;;;0.00;0.00;;;;;13.75;80.44;102170.72;4975828;28;49934;-48
2023/01/05 07:32:34;;;;;;;;;1.00;1.00;;;;;13.75;80.38;102170.72;4974388;28;45420;-46
2023/01/05 07:34:59;;;;;;;;;0.67;0.67;;;;;13.77;80.28;102174.94;4977071;28;45343;-45
2023/01/05 07:37:24;;;;;;;;;0.33;0.33;;;;;13.80;80.43;102171.16;4975561;28;46090;-45
2023/01/05 07:39:50;;;;;;;;;0.00;0.00;;;;;13.81;80.51;102176.34;4974306;28;45436;-45
2023/01/05 07:42:15;;;;;;;;;0.00;0.00;;;;;13.83;80.43;102178.91;4975893;28;45415;-47
2023/01/05 07:44:40;;;;;;;;;0.67;0.67;;;;;13.84;80.35;102188.63;4974604;28;45416;-45
2023/01/05 07:47:06;;;;;;;;;1.00;0.00;;;;;13.84;80.56;102180.59;4975371;28;46074;-45
2023/01/05 07:49:31;;;;;;;;;2.00;1.00;;;;;13.85;80.73;102187.66;4975264;28;45405;-50
2023/01/05 07:51:56;;;;;;;;;0.00;0.00;;;;;13.85;80.44;102185.81;4974968;28;45651;-46
2023/01/05 07:54:22;;;;;;;;;0.33;0.33;;;;;13.86;80.46;102184.84;4976032;28;45351;-47
2023/01/05 07:56:47;;;;;;;;;0.00;0.00;;;;;13.85;80.63;102187.66;4975358;28;46174;-46
2023/01/05 07:59:12;;;;;;;;;2.00;0.67;;;;;13.88;80.65;102184.72;4975573;28;45251;-47
2023/01/05 08:01:38;;;;;;;;;1.67;0.33;;;;;13.89;80.50;102184.56;4975358;28;45303;-44
2023/01/05 08:04:03;;;;;;;;;0.00;0.00;;;;;13.89;80.49;102179.22;4975476;28;45347;-44
2023/01/05 08:06:29;;;;;;;;;0.00;0.00;;;;;13.92;80.65;102184.31;4975453;28;45945;-46
2023/01/05 08:08:55;;;;;;;;;1.00;1.00;;;;;13.93;80.60;102183.31;4975264;28;45397;-46
2023/01/05 08:11:20;;;;;;;;;1.00;1.00;;;;;13.95;80.33;102189.41;4975603;28;45232;-45
2023/01/05 08:13:58;;;;;;;;;1.00;1.00;;;;;13.88;80.68;102171.34;4975473;28;45367;-46
2023/01/05 08:16:25;;;;;;;;;1.00;1.00;;;;;13.95;80.28;102189.41;4975260;28;46105;-46
2023/01/05 08:18:50;;;;;;;;;1.00;1.00;;;;;13.95;80.32;102185.88;4975159;28;45390;-47
2023/01/05 08:21:16;;;;;;;;;1.00;0.67;;;;;13.98;80.60;102191.78;4975442;28;45331;-46
2023/01/05 08:23:41;;;;;;;;;2.00;2.00;;;;;13.99;80.22;102190.00;4975535;28;45318;-47
2023/01/05 08:26:11;;;;;;;;;2.33;1.00;;;;;14.02;80.51;102202.22;4975238;28;45394;-47
2023/01/05 08:28:37;;;;;;;;;1.67;1.67;;;;;14.02;80.42;102204.91;4975021;28;45300;-49
2023/01/05 08:31:15;;;;;;;;;2.00;2.00;;;;;14.03;80.17;102199.44;4975331;28;45445;-45
2023/01/05 08:33:41;;;;;;;;;2.00;2.00;;;;;13.98;80.41;102194.47;4975051;28;45470;-47
2023/01/05 08:36:08;;;;;;;;;3.00;2.00;;;;;14.01;80.66;102197.88;4974863;28;45342;-46
2023/01/05 08:38:33;;;;;;;;;5.33;2.00;;;;;14.01;80.48;102203.22;4974611;28;45169;-46
2023/01/05 08:40:59;;;;;;;;;4.00;2.00;;;;;14.01;80.36;102200.53;4975014;28;45323;-48
2023/01/05 08:43:24;;;;;;;;;3.00;2.00;;;;;14.05;80.58;102205.50;4975153;28;45291;-47
2023/01/05 08:45:50;;;;;;;;;2.00;2.00;;;;;14.06;80.68;102201.00;4974871;28;45557;-46
2023/01/05 08:48:15;;;;;;;;;1.00;1.00;;;;;14.08;80.36;102199.03;4974585;28;45397;-45
2023/01/05 08:50:41;;;;;;;;;1.33;1.33;;;;;14.01;80.43;102193.38;4975067;28;45219;-46
2023/01/05 08:53:06;;;;;;;;;1.33;1.33;;;;;14.12;80.37;102203.16;4975230;28;45314;-45
2023/01/05 08:55:31;;;;;;;;;1.00;1.00;;;;;14.05;80.25;102202.81;4976214;28;46155;-45
2023/01/05 08:57:57;;;;;;;;;2.33;1.00;;;;;14.15;80.20;102203.69;4974808;28;45216;-46
2023/01/05 09:00:22;;;;;;;;;4.00;2.00;;;;;14.17;80.41;102206.25;4974764;28;45570;-48
2023/01/05 09:02:48;;;;;;;;;2.00;2.00;;;;;14.19;80.12;102205.13;4974555;28;45338;-44
2023/01/05 09:05:14;;;;;;;;;4.00;3.00;;;;;14.22;79.85;102204.03;4973798;28;46869;-47
2023/01/05 09:07:39;;;;;;;;;2.00;2.00;;;;;14.18;79.96;102195.41;4974639;28;45692;-47
2023/01/05 09:10:06;;;;;;;;;1.00;1.00;;;;;14.29;79.81;102204.34;4974904;28;45356;-47
2023/01/05 09:12:34;;;;;;;;;1.00;1.00;;;;;14.33;79.64;102208.44;4974974;28;45460;-46
2023/01/05 09:15:00;;;;;;;;;1.00;1.00;;;;;14.31;79.65;102195.16;4974435;28;46968;-48
2023/01/05 09:17:25;;;;;;;;;1.33;1.33;;;;;14.33;79.46;102192.38;4974482;28;45315;-45
2023/01/05 09:19:51;;;;;;;;;0.67;0.67;;;;;14.39;79.20;102202.53;4974640;28;45446;-46
2023/01/05 09:22:16;;;;;;;;;1.00;1.00;;;;;14.44;78.96;102203.81;4974715;28;45260;-47
2023/01/05 09:24:41;;;;;;;;;1.00;1.00;;;;;14.47;78.97;102205.38;4974472;28;46118;-45
2023/01/05 09:27:07;;;;;;;;;2.00;1.00;;;;;14.49;78.76;102206.09;4974163;28;53311;-46
2023/01/05 09:29:32;;;;;;;;;0.00;0.00;;;;;14.52;78.54;102205.84;4974465;28;45512;-48
2023/01/05 09:31:57;;;;;;;;;0.67;0.67;;;;;14.45;78.57;102201.97;4974505;28;45399;-47
2023/01/05 09:34:23;;;;;;;;;1.00;1.00;;;;;14.53;78.46;102204.84;4974042;28;45408;-47
2023/01/05 09:36:48;;;;;;;;;1.00;1.00;;;;;14.53;78.18;102207.53;4974248;28;45401;-45
2023/01/05 09:39:14;;;;;;;;;0.00;0.00;;;;;14.53;78.47;102212.03;4974394;28;45435;-46
2023/01/05 09:41:45;;;;;;;;;3.00;0.00;;;;;14.56;78.67;102214.44;4974413;28;45236;-46
2023/01/05 09:44:30;;;;;;;;;4.67;2.33;;;;;14.57;78.20;102211.63;4973921;28;46139;-45
2023/01/05 09:47:02;;;;;;;;;1.67;1.00;;;;;14.55;78.47;102204.72;4973995;28;45254;-46
2023/01/05 09:49:28;;;;;;;;;1.00;1.00;;;;;14.61;78.09;102213.03;4973700;28;45561;-46
2023/01/05 09:52:00;;;;;;;;;0.67;0.00;;;;;14.60;78.27;102214.03;4974278;28;45510;-44
2023/01/05 09:54:30;;;;;;;;;0.00;0.00;;;;;14.65;78.20;102214.47;4973891;28;46025;-45
2023/01/05 09:56:57;;;;;;;;;1.00;1.00;;;;;14.67;77.96;102212.50;4973572;28;45317;-48
2023/01/05 09:59:25;;;;;;;;;1.00;1.00;;;;;14.70;77.88;102217.56;4974060;28;45441;-47
2023/01/05 10:01:54;;;;;;;;;3.00;3.00;;;;;14.69;78.01;102215.88;4973853;28;45286;-47
2023/01/05 10:04:22;;;;;;;;;1.00;1.00;;;;;14.71;77.84;102213.09;4973467;28;46234;-48
2023/01/05 10:06:56;;;;;;;;;1.33;1.33;;;;;14.78;77.89;102222.25;4973651;28;45434;-49
2023/01/05 10:09:27;;;;;;;;;0.00;0.00;;;;;14.79;77.68;102218.59;4973786;28;45378;-45
2023/01/05 10:14:45;;;;;;;;;0.00;0.00;;;;;14.78;77.86;102224.06;4973924;28;45668;-46
2023/01/05 10:17:17;;;;;;;;;1.00;1.00;;;;;14.77;77.74;102228.59;4976443;28;45256;-47
2023/01/05 10:19:43;;;;;;;;;2.00;1.00;;;;;14.77;77.72;102233.09;4976571;28;45315;-47
2023/01/05 10:22:46;;;;;;;;;0.00;0.00;;;;;14.78;77.98;102234.78;4976829;28;45365;-44
2023/01/05 10:25:20;;;;;;;;;1.00;1.00;;;;;14.78;77.94;102234.78;4976355;28;45330;-45
2023/01/05 10:27:59;;;;;;;;;0.00;0.00;;;;;14.79;78.03;102231.13;4976577;28;45363;-44
2023/01/05 10:30:43;;;;;;;;;3.00;1.00;;;;;14.78;77.88;102224.06;4976525;28;45404;-47
2023/01/05 10:33:17;;;;;;;;;0.00;0.00;;;;;14.82;77.96;102229.03;4976555;28;45505;-48
2023/01/05 10:36:15;;;;;;;;;0.00;0.00;;;;;14.88;77.89;102216.94;4976322;28;45376;-48
2023/01/05 10:39:18;;;;;;;;;1.00;0.00;;;;;15.01;77.40;102222.84;4976378;28;45454;-45
2023/01/05 10:41:50;;;;;;;;;1.00;0.00;;;;;15.14;77.18;102220.75;4976342;28;45448;-44
2023/01/05 10:44:42;;;;;;;;;0.33;0.33;;;;;15.29;76.86;102217.63;4976812;28;45230;-48
2023/01/05 10:47:09;;;;;;;;;2.00;0.75;;;;;15.56;76.02;102216.91;4977770;28;45418;-46
2023/01/05 10:49:37;;;;;;;;;0.50;0.50;;;;;15.73;75.76;102213.53;4975837;28;45229;-45
2023/01/05 10:52:02;;;;;;;;;0.00;0.00;;;;;15.80;75.09;102211.09;4976106;28;45454;-48
2023/01/05 10:54:43;;;;;;;;;1.50;0.00;;;;;15.72;75.34;102209.16;4976476;28;45489;-50
2023/01/05 10:57:27;;;;;;;;;0.00;0.00;;;;;15.54;75.77;102209.00;4975967;28;46220;-46
2023/01/05 11:00:04;;;;;;;;;0.00;0.00;;;;;15.51;76.09;102205.78;4975889;28;45276;-47
2023/01/05 11:02:37;;;;;;;;;0.00;0.00;;;;;15.51;76.20;102200.41;4976094;28;45219;-45
2023/01/05 11:05:08;;;;;;;;;2.00;0.00;;;;;15.53;76.33;102195.75;4976231;28;45357;-46
2023/01/05 11:07:57;;;;;;;;;0.50;0.50;;;;;15.70;76.13;102193.19;4976105;28;46208;-48
2023/01/05 11:10:31;;;;;;;;;0.00;0.00;;;;;15.75;75.74;102192.75;4976119;28;45410;-49
2023/01/05 11:13:29;;;;;;;;;0.00;0.00;;;;;15.81;75.48;102178.78;4976048;28;45472;-48
2023/01/05 11:16:20;;;;;;;;;0.00;0.00;;;;;15.84;75.11;102169.56;4978569;28;45527;-49
2023/01/05 11:19:06;;;;;;;;;0.67;0.67;;;;;15.85;75.35;102169.44;4975480;28;46214;-46
2023/01/05 11:21:34;;;;;;;;;1.67;1.67;;;;;15.87;74.95;102162.06;4977029;28;45441;-47
2023/01/05 11:24:01;;;;;;;;;0.00;0.00;;;;;15.88;74.64;102165.59;4975947;28;45258;-46
2023/01/05 11:26:35;;;;;;;;;12.67;8.00;;;;;15.93;74.25;102156.13;4975125;28;45304;-48
2023/01/05 11:29:08;;;;;;;;;0.00;0.00;;;;;15.95;74.31;102155.97;4975636;28;46114;-47
2023/01/05 11:31:56;;;;;;;;;1.00;1.00;;;;;15.95;74.35;102162.19;4975679;28;45249;-47
2023/01/05 11:34:44;;;;;;;;;0.00;0.00;;;;;15.86;74.60;102159.56;4975716;28;45467;-47
2023/01/05 11:37:24;;;;;;;;;22.67;16.33;;;;;15.83;74.48;102151.78;4981332;28;45369;-47
2023/01/05 11:39:53;;;;;;;;;1.25;1.00;;;;;15.80;74.22;102147.56;4975622;28;46093;-48
2023/01/05 11:42:21;;;;;;;;;1.00;1.00;;;;;15.76;74.74;102156.03;4975661;28;45420;-47
2023/01/05 11:44:50;;;;;;;;;1.00;0.75;;;;;15.58;74.68;102135.31;4975865;28;45315;-48
2023/01/05 11:47:21;;;;;;;;;0.00;0.00;;;;;15.59;75.00;102150.44;4975944;28;45349;-46
2023/01/05 11:49:47;;;;;;;;;0.00;0.00;;;;;15.54;75.27;102163.41;4975089;28;46237;-44
2023/01/05 11:52:52;;;;;;;;;0.00;0.00;;;;;15.47;75.85;102151.59;4975733;28;45311;-49
2023/01/05 11:55:24;;;;;;;;;1.00;1.00;;;;;15.44;76.14;102146.50;5016444;28;45376;-47
2023/01/05 11:57:53;;;;;;;;;2.25;1.00;;;;;15.39;76.72;102154.97;5015801;28;45600;-47
2023/01/05 12:00:23;;;;;;;;;1.00;1.00;;;;;15.31;76.45;102149.50;5015560;28;45600;-50
2023/01/05 12:03:10;;;;;;;;;2.00;2.00;;;;;15.25;76.60;102146.53;5015547;28;45466;-45
2023/01/05 12:05:42;;;;;;;;;1.00;1.00;;;;;15.23;77.23;102149.34;5015494;28;45473;-48